Time;durP1;ratioP1;P1;durP2;ratioP2;P2;SDS_P1;SDS_P2;PMS_P1;PMS_P2;Temp;Humidity;BMP_temperature;BMP_pressure;BME280_temperature;BME280_humidity;BME280_pressure;Samples;Min_cycle;Max_cycle;Signal;HPM_P1;HPM_P2
2023/03/10 00:01:21;;;;;;;12.57;5.43;;;;;;;;;;5113381;28;20115;-51
2023/03/10 00:03:47;;;;;;;;;;;;;;;;;;5113610;28;20118;-51
2023/03/10 00:06:14;;;;;;;14.35;6.30;;;;;;;;;;5113244;28;20003;-51
2023/03/10 00:08:39;;;;;;;11.38;5.30;;;;;;;;;;5112351;28;20031;-50
2023/03/10 00:11:05;;;;;;;12.98;5.88;;;;;;;;;;5113336;28;20019;-51
2023/03/10 00:13:31;;;;;;;9.38;6.32;;;;;;;;;;5112783;28;20115;-50
2023/03/10 00:15:56;;;;;;;9.48;6.13;;;;;;;;;;5112944;28;20197;-51
2023/03/10 00:18:21;;;;;;;11.95;5.65;;;;;;;;;;5113053;28;20043;-51
2023/03/10 00:20:49;;;;;;;10.50;6.88;;;;;;;;;;5113167;28;20038;-51
2023/03/10 00:23:14;;;;;;;18.48;6.95;;;;;;;;;;5113024;28;20035;-51
2023/03/10 00:25:40;;;;;;;9.82;5.63;;;;;;;;;;5112928;28;20373;-51
2023/03/10 00:28:05;;;;;;;15.25;6.97;;;;;;;;;;5113040;28;20031;-50
2023/03/10 00:30:34;;;;;;;9.93;6.43;;;;;;;;;;5112353;28;20128;-51
2023/03/10 00:33:00;;;;;;;10.60;6.38;;;;;;;;;;5111328;28;20023;-50
2023/03/10 00:35:25;;;;;;;12.25;7.00;;;;;;;;;;5112406;28;20032;-51
2023/03/10 00:37:50;;;;;;;12.73;6.68;;;;;;;;;;5112550;27;20028;-51
2023/03/10 00:40:16;;;;;;;12.30;5.82;;;;;;;;;;5112438;28;20034;-51
2023/03/10 00:42:43;;;;;;;12.45;7.55;;;;;;;;;;5111133;28;20049;-51
2023/03/10 00:45:10;;;;;;;9.60;5.90;;;;;;;;;;5112505;28;20046;-51
2023/03/10 00:47:35;;;;;;;11.48;5.75;;;;;;;;;;5111057;28;20058;-51
2023/03/10 00:50:01;;;;;;;10.55;6.28;;;;;;;;;;5110983;28;20027;-51
2023/03/10 00:52:29;;;;;;;9.57;5.72;;;;;;;;;;5112200;28;20023;-51
2023/03/10 00:54:55;;;;;;;14.27;7.53;;;;;;;;;;5112215;28;20107;-51
2023/03/10 00:57:20;;;;;;;17.77;5.90;;;;;;;;;;5093812;28;20142;-51
2023/03/10 00:59:49;;;;;;;11.13;6.10;;;;;;;;;;5110946;28;20080;-50
2023/03/10 01:02:14;;;;;;;12.38;7.03;;;;;;;;;;5112068;28;20031;-51
2023/03/10 01:04:40;;;;;;;11.18;6.60;;;;;;;;;;5110895;28;20016;-51
2023/03/10 01:07:05;;;;;;;12.05;7.32;;;;;;;;;;5112073;28;20449;-51
2023/03/10 01:09:32;;;;;;;8.43;5.70;;;;;;;;;;5110623;28;20122;-51
2023/03/10 01:11:58;;;;;;;16.15;6.60;;;;;;;;;;5112050;28;20111;-51
2023/03/10 01:14:23;;;;;;;11.25;7.03;;;;;;;;;;5110524;28;20023;-51
2023/03/10 01:16:49;;;;;;;9.90;6.75;;;;;;;;;;5112233;28;20020;-50
2023/03/10 01:19:14;;;;;;;14.10;6.70;;;;;;;;;;5112165;28;20537;-51
2023/03/10 01:21:40;;;;;;;10.23;6.85;;;;;;;;;;5111856;28;20035;-51
2023/03/10 01:24:05;;;;;;;13.73;5.38;;;;;;;;;;5111941;28;20054;-51
2023/03/10 01:26:31;;;;;;;13.10;6.15;;;;;;;;;;5110371;28;20072;-51
2023/03/10 01:28:57;;;;;;;5.53;4.88;;;;;;;;;;5111688;28;20023;-50
2023/03/10 01:31:22;;;;;;;9.50;6.13;;;;;;;;;;5110490;28;20118;-51
2023/03/10 01:33:47;;;;;;;10.45;5.68;;;;;;;;;;5110423;28;20062;-50
2023/03/10 01:36:21;;;;;;;9.68;5.53;;;;;;;;;;5110360;28;20031;-50
2023/03/10 01:38:47;;;;;;;7.80;4.93;;;;;;;;;;5111962;28;20028;-51
2023/03/10 01:41:13;;;;;;;9.02;5.30;;;;;;;;;;5110337;28;20050;-50
2023/03/10 01:43:39;;;;;;;12.48;6.63;;;;;;;;;;5110434;28;20130;-51
2023/03/10 01:46:28;;;;;;;12.52;5.88;;;;;;;;;;5111706;28;20389;-51
2023/03/10 01:48:56;;;;;;;10.05;5.18;;;;;;;;;;5099073;28;20413;-50
2023/03/10 01:51:22;;;;;;;8.43;4.82;;;;;;;;;;5110308;28;20022;-51
2023/03/10 01:53:48;;;;;;;7.88;5.35;;;;;;;;;;5110201;28;20409;-50
2023/03/10 01:56:15;;;;;;;9.30;6.18;;;;;;;;;;5110254;28;20389;-50
2023/03/10 01:58:43;;;;;;;8.02;4.90;;;;;;;;;;5110243;28;20482;-50
2023/03/10 02:01:09;;;;;;;7.60;5.20;;;;;;;;;;5110215;28;20024;-50
2023/03/10 02:03:50;;;;;;;13.90;6.20;;;;;;;;;;5110164;28;20035;-51
2023/03/10 02:06:18;;;;;;;9.82;4.95;;;;;;;;;;5110005;28;20495;-50
2023/03/10 02:08:45;;;;;;;9.20;5.15;;;;;;;;;;5111556;28;20152;-51
2023/03/10 02:11:12;;;;;;;8.65;5.28;;;;;;;;;;5110106;28;20038;-50
2023/03/10 02:13:38;;;;;;;9.20;4.97;;;;;;;;;;5110072;28;20031;-51
2023/03/10 02:16:03;;;;;;;10.25;4.15;;;;;;;;;;5110106;28;20380;-51
2023/03/10 02:18:29;;;;;;;7.40;4.38;;;;;;;;;;5109989;28;20020;-50
2023/03/10 02:21:13;;;;;;;8.60;5.35;;;;;;;;;;5111415;28;20071;-51
2023/03/10 02:23:43;;;;;;;9.93;4.93;;;;;;;;;;5110028;28;20543;-51
2023/03/10 02:26:18;;;;;;;8.50;5.22;;;;;;;;;;5111275;28;20031;-50
2023/03/10 02:28:44;;;;;;;10.18;5.32;;;;;;;;;;5109781;28;20028;-51
2023/03/10 02:31:12;;;;;;;10.63;5.40;;;;;;;;;;5111998;28;20044;-51
2023/03/10 02:33:38;;;;;;;15.27;5.72;;;;;;;;;;5113537;28;20023;-50
2023/03/10 02:36:17;;;;;;;10.27;4.80;;;;;;;;;;5113588;28;20020;-50
2023/03/10 02:38:43;;;;;;;9.38;5.68;;;;;;;;;;5113613;28;20024;-51
2023/03/10 02:41:15;;;;;;;11.25;5.53;;;;;;;;;;5113576;28;20042;-51
2023/03/10 02:43:41;;;;;;;14.45;6.95;;;;;;;;;;5113776;28;20035;-50
2023/03/10 02:46:19;;;;;;;6.47;4.43;;;;;;;;;;5113313;28;20020;-50
2023/03/10 02:48:45;;;;;;;7.60;4.70;;;;;;;;;;5113749;28;20058;-51
2023/03/10 02:51:21;;;;;;;12.00;4.75;;;;;;;;;;5113237;28;20034;-51
2023/03/10 02:53:47;;;;;;;7.68;4.25;;;;;;;;;;5114423;28;20035;-51
2023/03/10 02:56:13;;;;;;;8.90;4.55;;;;;;;;;;5113323;28;20031;-51
2023/03/10 02:58:41;;;;;;;8.77;4.93;;;;;;;;;;5096729;28;20074;-51
2023/03/10 03:01:08;;;;;;;9.70;4.40;;;;;;;;;;5113143;28;20041;-51
2023/03/10 03:03:37;;;;;;;11.85;4.72;;;;;;;;;;5113106;28;20451;-50
2023/03/10 03:06:03;;;;;;;7.55;4.28;;;;;;;;;;5114331;28;20106;-50
2023/03/10 03:08:29;;;;;;;5.30;4.32;;;;;;;;;;5112872;28;20477;-51
2023/03/10 03:10:55;;;;;;;4.90;3.63;;;;;;;;;;5112981;28;20075;-50
2023/03/10 03:13:20;;;;;;;8.52;4.43;;;;;;;;;;5112676;28;20362;-50
2023/03/10 03:15:47;;;;;;;8.30;5.20;;;;;;;;;;5114375;28;20035;-50
2023/03/10 03:18:13;;;;;;;4.20;3.15;;;;;;;;;;5113115;28;20430;-50
2023/03/10 03:20:42;;;;;;;8.00;4.05;;;;;;;;;;5112776;28;20023;-51
2023/03/10 03:23:10;;;;;;;12.35;4.50;;;;;;;;;;5112713;28;20024;-50
2023/03/10 03:25:37;;;;;;;12.13;4.10;;;;;;;;;;5112529;28;20073;-51
2023/03/10 03:28:04;;;;;;;9.38;4.60;;;;;;;;;;5112738;28;20038;-50
2023/03/10 03:30:29;;;;;;;7.28;4.22;;;;;;;;;;5114034;28;20044;-50
2023/03/10 03:32:56;;;;;;;7.68;4.70;;;;;;;;;;5112516;28;20558;-51
2023/03/10 03:35:24;;;;;;;9.18;5.10;;;;;;;;;;5112282;28;20039;-51
2023/03/10 03:37:50;;;;;;;6.47;3.70;;;;;;;;;;5112374;28;20469;-51
2023/03/10 03:40:16;;;;;;;11.15;5.13;;;;;;;;;;5112339;28;20030;-51
2023/03/10 03:42:45;;;;;;;6.45;5.25;;;;;;;;;;5111471;28;20024;-51
2023/03/10 03:45:11;;;;;;;8.75;3.58;;;;;;;;;;5111996;28;20020;-51
2023/03/10 03:47:37;;;;;;;6.28;3.20;;;;;;;;;;5113561;28;20031;-51
2023/03/10 03:50:03;;;;;;;5.82;4.47;;;;;;;;;;5113494;28;20124;-51
2023/03/10 03:52:28;;;;;;;7.28;4.45;;;;;;;;;;5112110;28;20106;-51
2023/03/10 03:54:55;;;;;;;9.15;4.10;;;;;;;;;;5111966;28;20028;-51
2023/03/10 03:57:21;;;;;;;7.65;4.70;;;;;;;;;;5111919;28;20169;-51
2023/03/10 03:59:46;;;;;;;7.97;4.53;;;;;;;;;;5113579;28;20030;-51
2023/03/10 04:02:12;;;;;;;6.60;3.78;;;;;;;;;;5094987;28;20508;-51
2023/03/10 04:04:37;;;;;;;9.43;4.45;;;;;;;;;;5113197;28;20102;-50
2023/03/10 04:07:03;;;;;;;10.68;5.00;;;;;;;;;;5111853;28;20538;-50
2023/03/10 04:09:29;;;;;;;4.85;4.00;;;;;;;;;;5111715;28;20103;-51
2023/03/10 04:11:54;;;;;;;5.78;4.10;;;;;;;;;;5111778;28;20019;-51
2023/03/10 04:14:21;;;;;;;9.02;5.43;;;;;;;;;;5111516;28;20394;-50
2023/03/10 04:16:47;;;;;;;9.15;4.43;;;;;;;;;;5111638;28;20023;-51
2023/03/10 04:19:12;;;;;;;8.38;4.68;;;;;;;;;;5111632;28;20023;-51
2023/03/10 04:21:41;;;;;;;4.90;3.30;;;;;;;;;;5111525;28;20030;-51
2023/03/10 04:24:07;;;;;;;10.20;4.30;;;;;;;;;;5111564;28;20028;-51
2023/03/10 04:26:32;;;;;;;8.02;5.28;;;;;;;;;;5111338;28;20028;-51
2023/03/10 04:28:58;;;;;;;7.95;3.88;;;;;;;;;;5111262;28;20465;-51
2023/03/10 04:31:25;;;;;;;6.38;4.25;;;;;;;;;;5111367;28;20036;-51
2023/03/10 04:33:51;;;;;;;5.03;3.40;;;;;;;;;;5112823;28;20100;-50
2023/03/10 04:36:18;;;;;;;8.30;4.60;;;;;;;;;;5112500;28;20035;-51
2023/03/10 04:38:46;;;;;;;5.05;3.45;;;;;;;;;;5111248;28;20431;-51
2023/03/10 04:41:12;;;;;;;7.38;5.10;;;;;;;;;;5111240;28;20084;-51
2023/03/10 04:43:40;;;;;;;5.40;3.67;;;;;;;;;;5111191;28;20022;-51
2023/03/10 04:46:06;;;;;;;6.68;3.85;;;;;;;;;;5111107;28;20023;-51
2023/03/10 04:48:31;;;;;;;12.13;3.55;;;;;;;;;;5111068;28;20111;-50
2023/03/10 04:50:58;;;;;;;7.00;4.18;;;;;;;;;;5112367;28;20027;-51
2023/03/10 04:53:26;;;;;;;5.18;3.92;;;;;;;;;;5094241;28;20020;-51
2023/03/10 04:55:51;;;;;;;12.45;4.97;;;;;;;;;;5110588;28;20043;-51
2023/03/10 04:58:18;;;;;;;10.88;4.60;;;;;;;;;;5110832;28;20054;-51
2023/03/10 05:00:44;;;;;;;12.77;5.20;;;;;;;;;;5112189;28;20039;-50
2023/03/10 05:03:10;;;;;;;6.38;4.25;;;;;;;;;;5112473;28;20024;-51
2023/03/10 05:05:36;;;;;;;9.20;4.65;;;;;;;;;;5110778;28;20722;-51
2023/03/10 05:08:01;;;;;;;7.28;4.47;;;;;;;;;;5110804;28;20091;-52
2023/03/10 05:10:28;;;;;;;4.97;3.88;;;;;;;;;;5110677;28;20031;-51
2023/03/10 05:12:54;;;;;;;7.90;4.38;;;;;;;;;;5110829;28;20046;-51
2023/03/10 05:15:19;;;;;;;12.48;4.70;;;;;;;;;;5110488;28;20385;-51
2023/03/10 05:17:45;;;;;;;9.90;4.80;;;;;;;;;;5110697;28;20027;-51
2023/03/10 05:20:12;;;;;;;6.25;3.97;;;;;;;;;;5111991;28;20031;-51
2023/03/10 05:22:37;;;;;;;8.23;4.30;;;;;;;;;;5111828;28;20016;-51
2023/03/10 05:25:05;;;;;;;11.18;4.78;;;;;;;;;;5110645;28;20034;-51
2023/03/10 05:27:32;;;;;;;13.82;5.20;;;;;;;;;;5110447;28;20027;-51
2023/03/10 05:29:57;;;;;;;5.13;3.70;;;;;;;;;;5110393;28;20047;-51
2023/03/10 05:32:24;;;;;;;9.40;4.43;;;;;;;;;;5110454;28;20038;-50
2023/03/10 05:34:51;;;;;;;5.13;3.78;;;;;;;;;;5110384;28;20040;-51
2023/03/10 05:37:16;;;;;;;5.85;3.47;;;;;;;;;;5111693;28;20026;-51
2023/03/10 05:39:45;;;;;;;4.85;2.97;;;;;;;;;;5111733;28;20054;-51
2023/03/10 05:42:16;;;;;;;7.53;3.47;;;;;;;;;;5110435;28;20461;-51
2023/03/10 05:44:41;;;;;;;5.40;3.92;;;;;;;;;;5093493;28;20032;-50
2023/03/10 05:47:07;;;;;;;6.18;3.17;;;;;;;;;;5111606;28;20385;-51
2023/03/10 05:49:33;;;;;;;5.22;2.90;;;;;;;;;;5110336;28;20062;-50
2023/03/10 05:51:58;;;;;;;7.50;4.13;;;;;;;;;;5110307;28;20031;-51
2023/03/10 05:54:24;;;;;;;7.13;2.95;;;;;;;;;;5093327;28;20039;-51
2023/03/10 05:56:50;;;;;;;8.05;4.43;;;;;;;;;;5093347;28;20457;-51
2023/03/10 05:59:18;;;;;;;6.72;3.33;;;;;;;;;;5110182;28;20473;-51
2023/03/10 06:01:44;;;;;;;8.88;3.63;;;;;;;;;;5110298;28;20064;-50
2023/03/10 06:04:09;;;;;;;6.03;3.53;;;;;;;;;;5111541;28;20110;-51
2023/03/10 06:06:35;;;;;;;4.10;2.85;;;;;;;;;;5111198;28;20458;-50
2023/03/10 06:09:00;;;;;;;8.40;3.47;;;;;;;;;;5115474;28;20043;-51
2023/03/10 06:11:26;;;;;;;7.30;3.97;;;;;;;;;;5115354;28;20099;-51
2023/03/10 06:13:51;;;;;;;6.70;4.20;;;;;;;;;;5114025;28;20035;-51
2023/03/10 06:16:17;;;;;;;7.13;4.28;;;;;;;;;;5115439;28;20027;-51
2023/03/10 06:18:43;;;;;;;9.88;4.53;;;;;;;;;;5115506;28;20529;-51
2023/03/10 06:21:10;;;;;;;10.63;4.88;;;;;;;;;;5115513;28;20020;-51
2023/03/10 06:23:36;;;;;;;10.20;5.35;;;;;;;;;;5115096;28;20477;-51
2023/03/10 06:26:04;;;;;;;6.70;4.28;;;;;;;;;;5115121;28;20032;-50
2023/03/10 06:28:31;;;;;;;10.00;4.75;;;;;;;;;;5115520;28;20035;-51
2023/03/10 06:30:57;;;;;;;9.40;5.70;;;;;;;;;;5114903;28;20157;-51
2023/03/10 06:33:23;;;;;;;7.60;4.32;;;;;;;;;;5114836;28;20111;-51
2023/03/10 06:35:48;;;;;;;7.10;4.88;;;;;;;;;;5114893;28;20028;-51
2023/03/10 06:38:14;;;;;;;9.27;4.95;;;;;;;;;;5115002;28;20476;-51
2023/03/10 06:40:40;;;;;;;9.18;3.60;;;;;;;;;;5114828;28;20016;-51
2023/03/10 06:43:05;;;;;;;6.30;4.20;;;;;;;;;;5114929;28;20422;-51
2023/03/10 06:45:31;;;;;;;9.00;4.38;;;;;;;;;;5114625;27;20083;-51
2023/03/10 06:47:56;;;;;;;15.95;4.07;;;;;;;;;;5115016;28;20028;-51
2023/03/10 06:50:25;;;;;;;16.80;4.97;;;;;;;;;;5113315;28;20149;-51
2023/03/10 06:52:51;;;;;;;10.40;5.68;;;;;;;;;;5114662;28;20485;-51
2023/03/10 06:55:17;;;;;;;11.00;4.57;;;;;;;;;;5114482;28;20660;-51
2023/03/10 06:57:42;;;;;;;4.43;3.90;;;;;;;;;;5114521;28;20114;-51
2023/03/10 07:00:10;;;;;;;8.18;4.15;;;;;;;;;;5114453;28;20048;-51
2023/03/10 07:02:36;;;;;;;6.25;4.95;;;;;;;;;;5113060;28;20031;-51
2023/03/10 07:05:01;;;;;;;13.27;6.72;;;;;;;;;;5114357;28;20020;-51
2023/03/10 07:07:27;;;;;;;8.82;4.45;;;;;;;;;;5114303;28;20077;-51
2023/03/10 07:09:52;;;;;;;7.45;4.72;;;;;;;;;;5114435;28;20023;-51
2023/03/10 07:12:18;;;;;;;11.07;4.60;;;;;;;;;;5114197;28;20462;-51
2023/03/10 07:14:43;;;;;;;12.30;5.20;;;;;;;;;;5114421;28;20118;-51
2023/03/10 07:17:08;;;;;;;15.10;5.20;;;;;;;;;;5114287;28;20023;-51
2023/03/10 07:19:35;;;;;;;6.95;4.63;;;;;;;;;;5114007;28;20016;-51
2023/03/10 07:22:00;;;;;;;9.07;5.13;;;;;;;;;;5114072;28;20374;-51
2023/03/10 07:24:26;;;;;;;7.00;4.05;;;;;;;;;;5113890;28;20032;-51
2023/03/10 07:26:51;;;;;;;3.70;2.90;;;;;;;;;;5114232;28;20031;-51
2023/03/10 07:29:16;;;;;;;7.13;3.22;;;;;;;;;;5113790;28;20201;-51
2023/03/10 07:31:43;;;;;;;6.40;3.45;;;;;;;;;;5113799;28;20039;-51
2023/03/10 07:34:09;;;;;;;5.72;3.60;;;;;;;;;;5113719;28;20043;-51
2023/03/10 07:36:34;;;;;;;6.13;4.40;;;;;;;;;;5113957;28;20019;-51
2023/03/10 07:38:59;;;;;;;9.02;5.00;;;;;;;;;;5112460;28;20457;-50
2023/03/10 07:41:25;;;;;;;8.93;4.32;;;;;;;;;;5113969;28;20024;-51
2023/03/10 07:43:51;;;;;;;6.68;3.22;;;;;;;;;;5113675;28;20016;-51
2023/03/10 07:46:17;;;;;;;8.35;4.10;;;;;;;;;;5113903;28;20039;-51
2023/03/10 07:48:43;;;;;;;19.15;4.22;;;;;;;;;;5113540;28;20019;-51
2023/03/10 07:51:08;;;;;;;4.95;3.33;;;;;;;;;;5113525;28;20481;-51
2023/03/10 07:53:34;;;;;;;6.90;4.40;;;;;;;;;;5113580;28;20019;-51
2023/03/10 07:56:03;;;;;;;8.43;3.67;;;;;;;;;;5113316;28;20043;-51
2023/03/10 07:58:28;;;;;;;5.65;3.65;;;;;;;;;;5113596;28;20245;-51
2023/03/10 08:00:55;;;;;;;5.47;3.35;;;;;;;;;;5113316;28;20076;-51
2023/03/10 08:03:21;;;;;;;7.32;4.15;;;;;;;;;;5113191;28;20048;-51
2023/03/10 08:05:46;;;;;;;7.93;4.57;;;;;;;;;;5113150;28;20082;-51
2023/03/10 08:08:12;;;;;;;6.05;4.10;;;;;;;;;;5113183;28;20027;-51
2023/03/10 08:10:37;;;;;;;6.07;4.45;;;;;;;;;;5113314;28;20034;-51
2023/03/10 08:13:03;;;;;;;6.65;4.45;;;;;;;;;;5112999;28;20090;-51
2023/03/10 08:15:29;;;;;;;6.28;4.20;;;;;;;;;;5112935;28;20488;-51
2023/03/10 08:17:54;;;;;;;8.18;4.82;;;;;;;;;;5112984;28;20064;-51
2023/03/10 08:20:20;;;;;;;7.97;4.18;;;;;;;;;;5112884;27;20035;-51
2023/03/10 08:22:45;;;;;;;6.43;4.30;;;;;;;;;;5113220;28;20112;-51
2023/03/10 08:25:12;;;;;;;6.03;3.60;;;;;;;;;;5113084;28;20032;-51
2023/03/10 08:27:37;;;;;;;7.03;4.43;;;;;;;;;;5112647;28;20163;-51
2023/03/10 08:30:03;;;;;;;6.68;3.53;;;;;;;;;;5110699;28;20215;-51
2023/03/10 08:32:29;;;;;;;5.65;3.72;;;;;;;;;;5112654;28;20038;-51
2023/03/10 08:34:55;;;;;;;7.65;3.88;;;;;;;;;;5112619;28;20035;-51
2023/03/10 08:37:21;;;;;;;10.90;3.45;;;;;;;;;;5112481;28;20023;-51
2023/03/10 08:39:46;;;;;;;5.45;2.92;;;;;;;;;;5112486;28;20039;-51
2023/03/10 08:42:11;;;;;;;6.32;3.88;;;;;;;;;;5112866;28;20098;-51
2023/03/10 08:44:37;;;;;;;4.45;3.33;;;;;;;;;;5112362;28;20409;-51
2023/03/10 08:47:02;;;;;;;5.88;4.47;;;;;;;;;;5112374;28;20023;-51
2023/03/10 08:49:28;;;;;;;7.75;3.90;;;;;;;;;;5112390;28;20039;-51
2023/03/10 08:51:53;;;;;;;10.05;4.32;;;;;;;;;;5112629;28;20015;-51
2023/03/10 08:54:19;;;;;;;7.25;3.45;;;;;;;;;;5112212;28;20046;-51
2023/03/10 08:56:45;;;;;;;3.08;2.47;;;;;;;;;;5112371;28;20027;-51
2023/03/10 08:59:10;;;;;;;5.35;2.85;;;;;;;;;;5112489;28;20031;-51
2023/03/10 09:01:36;;;;;;;6.97;3.25;;;;;;;;;;5112223;28;20023;-51
2023/03/10 09:04:02;;;;;;;4.68;3.03;;;;;;;;;;5110895;28;20024;-51
2023/03/10 09:06:28;;;;;;;13.10;3.95;;;;;;;;;;5110985;28;20066;-51
2023/03/10 09:08:53;;;;;;;9.70;3.58;;;;;;;;;;5112127;28;20051;-51
2023/03/10 09:11:21;;;;;;;4.65;3.15;;;;;;;;;;5112003;28;20118;-51
2023/03/10 09:13:47;;;;;;;13.73;3.00;;;;;;;;;;5112030;28;20031;-51
2023/03/10 09:16:13;;;;;;;11.30;3.13;;;;;;;;;;5112042;28;20486;-51
2023/03/10 09:18:40;;;;;;;7.82;2.90;;;;;;;;;;5111889;28;20452;-51
2023/03/10 09:21:07;;;;;;;2.90;1.90;;;;;;;;;;5112044;28;20429;-51
2023/03/10 09:23:33;;;;;;;3.25;2.35;;;;;;;;;;5110548;28;20032;-51
2023/03/10 09:25:58;;;;;;;5.10;2.50;;;;;;;;;;5112232;28;20062;-51
2023/03/10 09:28:23;;;;;;;3.13;2.78;;;;;;;;;;5111880;28;20076;-51
2023/03/10 09:30:49;;;;;;;4.18;2.42;;;;;;;;;;5111725;28;20121;-51
2023/03/10 09:33:19;;;;;;;6.57;2.40;;;;;;;;;;5112184;28;20031;-51
2023/03/10 09:35:45;;;;;;;2.15;1.92;;;;;;;;;;5111563;28;20040;-51
2023/03/10 09:38:11;;;;;;;3.63;2.25;;;;;;;;;;5112119;28;20130;-51
2023/03/10 09:40:39;;;;;;;4.53;2.30;;;;;;;;;;5112020;28;20431;-51
2023/03/10 09:43:13;;;;;;;2.95;2.40;;;;;;;;;;5115449;28;20497;-51
2023/03/10 09:45:38;;;;;;;2.30;0.93;;;;;;;;;;5116142;27;20051;-51
2023/03/10 09:48:19;;;;;;;2.53;2.08;;;;;;;;;;5116240;28;20047;-51
2023/03/10 09:50:48;;;;;;;5.72;1.48;;;;;;;;;;5116085;28;20055;-51
2023/03/10 09:53:32;;;;;;;2.97;1.85;;;;;;;;;;5116070;28;20072;-51
2023/03/10 09:55:58;;;;;;;4.43;2.33;;;;;;;;;;5115660;28;20050;-51
2023/03/10 09:58:27;;;;;;;2.38;0.98;;;;;;;;;;5115637;28;20027;-51
2023/03/10 10:00:52;;;;;;;2.80;1.85;;;;;;;;;;5115965;28;20027;-51
2023/03/10 10:03:20;;;;;;;4.18;1.40;;;;;;;;;;5115871;28;20493;-51
2023/03/10 10:05:49;;;;;;;2.05;1.58;;;;;;;;;;5115564;28;20040;-51
2023/03/10 10:08:26;;;;;;;6.07;1.20;;;;;;;;;;5115558;28;20020;-51
2023/03/10 10:10:53;;;;;;;2.08;1.45;;;;;;;;;;5115472;28;20039;-51
2023/03/10 10:13:21;;;;;;;2.08;1.77;;;;;;;;;;5115345;28;20023;-51
2023/03/10 10:15:52;;;;;;;1.38;1.20;;;;;;;;;;5115336;28;20247;-51
2023/03/10 10:18:18;;;;;;;5.22;1.48;;;;;;;;;;5114004;28;20028;-51
2023/03/10 10:20:48;;;;;;;4.40;1.38;;;;;;;;;;5115223;28;20076;-51
2023/03/10 10:23:19;;;;;;;4.25;1.20;;;;;;;;;;5115281;28;20024;-51
2023/03/10 10:25:45;;;;;;;7.35;1.50;;;;;;;;;;5115020;28;20489;-51
2023/03/10 10:28:34;;;;;;;2.88;1.58;;;;;;;;;;5115155;28;20075;-51
2023/03/10 10:31:10;;;;;;;3.30;1.23;;;;;;;;;;5085864;28;20035;-51
2023/03/10 10:33:51;;;;;;;3.42;1.08;;;;;;;;;;5115110;28;20031;-51
2023/03/10 10:36:17;;;;;;;1.73;1.58;;;;;;;;;;5115015;28;20031;-51
2023/03/10 10:38:47;;;;;;;5.72;2.10;;;;;;;;;;5115125;28;20028;-51
2023/03/10 10:41:18;;;;;;;0.82;0.82;;;;;;;;;;5115225;27;20131;-51
2023/03/10 10:43:45;;;;;;;1.80;1.45;;;;;;;;;;5114684;28;20489;-51
2023/03/10 10:46:11;;;;;;;8.70;1.83;;;;;;;;;;5115062;28;20027;-51
2023/03/10 10:48:40;;;;;;;1.27;1.20;;;;;;;;;;5113407;28;20453;-51
2023/03/10 10:51:18;;;;;;;1.40;1.30;;;;;;;;;;5114736;28;20448;-51
2023/03/10 10:53:44;;;;;;;7.10;1.75;;;;;;;;;;5113963;28;20042;-51
2023/03/10 10:56:14;;;;;;;2.78;1.33;;;;;;;;;;5114870;28;20024;-51
2023/03/10 10:58:41;;;;;;;4.00;1.30;;;;;;;;;;5114389;28;20355;-51
2023/03/10 11:01:11;;;;;;;2.00;1.40;;;;;;;;;;5114553;28;20024;-51
2023/03/10 11:03:37;;;;;;;1.13;1.00;;;;;;;;;;5114392;28;20032;-51
2023/03/10 11:06:22;;;;;;;1.75;1.35;;;;;;;;;;5114455;28;20046;-51
2023/03/10 11:08:51;;;;;;;7.38;1.55;;;;;;;;;;5114434;28;20059;-51
2023/03/10 11:11:19;;;;;;;2.90;2.35;;;;;;;;;;5114376;28;20496;-51
2023/03/10 11:13:56;;;;;;;3.88;1.23;;;;;;;;;;5114069;28;20084;-51
2023/03/10 11:16:30;;;;;;;5.68;1.83;;;;;;;;;;5114358;28;20429;-51
2023/03/10 11:19:00;;;;;;;1.48;1.35;;;;;;;;;;5114256;28;20125;-51
2023/03/10 11:21:33;;;;;;;1.02;0.70;;;;;;;;;;5112644;28;20385;-51
2023/03/10 11:24:05;;;;;;;1.48;1.38;;;;;;;;;;5114658;28;20043;-51
2023/03/10 11:26:49;;;;;;;1.55;1.42;;;;;;;;;;5113829;28;20419;-51
2023/03/10 11:29:17;;;;;;;13.23;2.35;;;;;;;;;;5112502;28;20413;-51
2023/03/10 11:31:51;;;;;;;1.30;1.05;;;;;;;;;;5113898;28;20032;-51
2023/03/10 11:34:19;;;;;;;1.60;1.17;;;;;;;;;;5112531;28;20044;-51
2023/03/10 11:36:54;;;;;;;2.63;1.17;;;;;;;;;;5114099;28;20460;-51
2023/03/10 11:39:42;;;;;;;4.53;1.42;;;;;;;;;;5113836;28;20032;-51
2023/03/10 11:42:15;;;;;;;5.50;2.83;;;;;;;;;;5113735;28;20385;-51
2023/03/10 11:44:46;;;;;;;3.03;1.45;;;;;;;;;;5113590;28;20023;-51
2023/03/10 11:47:12;;;;;;;3.33;2.00;;;;;;;;;;5113572;28;20396;-51
2023/03/10 11:49:39;;;;;;;3.03;1.70;;;;;;;;;;5113499;28;20052;-51
2023/03/10 11:52:19;;;;;;;2.03;1.77;;;;;;;;;;5113465;28;20012;-51
2023/03/10 11:54:52;;;;;;;2.30;1.70;;;;;;;;;;5113570;28;20051;-51
2023/03/10 11:57:20;;;;;;;2.35;1.63;;;;;;;;;;5113436;28;20019;-51
2023/03/10 11:59:50;;;;;;;2.05;1.50;;;;;;;;;;5113635;28;20268;-51
2023/03/10 12:02:19;;;;;;;5.28;2.00;;;;;;;;;;5113314;28;20586;-51
2023/03/10 12:04:50;;;;;;;2.55;1.38;;;;;;;;;;5112148;28;20481;-51
2023/03/10 12:07:21;;;;;;;1.52;1.10;;;;;;;;;;5113265;28;20028;-51
2023/03/10 12:09:54;;;;;;;4.35;0.55;;;;;;;;;;5113176;28;20031;-51
2023/03/10 12:12:23;;;;;;;2.33;1.33;;;;;;;;;;5113165;27;20458;-51
2023/03/10 12:14:48;;;;;;;1.67;1.10;;;;;;;;;;5113223;28;20039;-51
2023/03/10 12:17:15;;;;;;;0.60;0.60;;;;;;;;;;5113101;28;20027;-51
2023/03/10 12:19:59;;;;;;;6.95;1.60;;;;;;;;;;5112826;28;20028;-51
2023/03/10 12:22:34;;;;;;;1.60;1.20;;;;;;;;;;5113104;28;20030;-51
2023/03/10 12:25:00;;;;;;;4.07;1.83;;;;;;;;;;5112933;28;20039;-51
2023/03/10 12:27:25;;;;;;;0.90;0.90;;;;;;;;;;5112723;28;20019;-51
2023/03/10 12:29:51;;;;;;;3.90;1.48;;;;;;;;;;5112568;28;20530;-51
2023/03/10 12:32:37;;;;;;;1.27;1.17;;;;;;;;;;5112766;28;20027;-51
2023/03/10 12:35:29;;;;;;;1.52;1.42;;;;;;;;;;5112667;28;20040;-51
2023/03/10 12:38:13;;;;;;;4.30;1.08;;;;;;;;;;5112622;28;20030;-50
2023/03/10 12:40:50;;;;;;;4.72;2.17;;;;;;;;;;5112491;28;20393;-51
2023/03/10 12:43:34;;;;;;;2.85;1.52;;;;;;;;;;5112612;28;20050;-51
2023/03/10 12:46:01;;;;;;;4.53;1.15;;;;;;;;;;5112480;28;20106;-50
2023/03/10 12:48:27;;;;;;;3.25;0.98;;;;;;;;;;5112458;28;20020;-51
2023/03/10 12:51:01;;;;;;;25.02;2.38;;;;;;;;;;5111110;28;20368;-51
2023/03/10 12:53:31;;;;;;;5.00;1.35;;;;;;;;;;5111005;28;20055;-51
2023/03/10 12:56:17;;;;;;;1.75;1.15;;;;;;;;;;5112290;28;20043;-51
2023/03/10 12:58:48;;;;;;;8.70;1.40;;;;;;;;;;5112500;28;20039;-51
2023/03/10 13:01:19;;;;;;;6.38;1.20;;;;;;;;;;5112516;28;20059;-51
2023/03/10 13:03:46;;;;;;;2.67;1.30;;;;;;;;;;5112156;28;20039;-51
2023/03/10 13:06:19;;;;;;;2.78;1.13;;;;;;;;;;5112085;28;20495;-51
2023/03/10 13:08:46;;;;;;;4.70;0.90;;;;;;;;;;5112373;28;20379;-51
2023/03/10 13:11:15;;;;;;;2.63;1.20;;;;;;;;;;5112137;28;20023;-51
2023/03/10 13:13:42;;;;;;;0.60;0.60;;;;;;;;;;5111921;28;20548;-51
2023/03/10 13:16:16;;;;;;;1.67;1.23;;;;;;;;;;5111889;28;20035;-51
2023/03/10 13:18:53;;;;;;;1.60;1.33;;;;;;;;;;5111912;28;20030;-51
2023/03/10 13:21:27;;;;;;;1.85;0.90;;;;;;;;;;5112063;28;20114;-51
2023/03/10 13:23:53;;;;;;;1.30;0.55;;;;;;;;;;5112259;28;20032;-51
2023/03/10 13:26:18;;;;;;;2.95;1.27;;;;;;;;;;5112128;28;20022;-51
2023/03/10 13:28:54;;;;;;;7.13;1.73;;;;;;;;;;5111541;28;20601;-51
2023/03/10 13:31:20;;;;;;;0.60;0.60;;;;;;;;;;5111876;28;20045;-51
2023/03/10 13:33:47;;;;;;;1.55;1.15;;;;;;;;;;5111693;28;20016;-51
2023/03/10 13:36:28;;;;;;;1.40;0.45;;;;;;;;;;5112077;28;20389;-51
2023/03/10 13:38:55;;;;;;;1.17;1.08;;;;;;;;;;5111735;28;20020;-51
2023/03/10 13:41:21;;;;;;;1.52;1.25;;;;;;;;;;5111785;28;20374;-51
2023/03/10 13:43:48;;;;;;;1.27;1.17;;;;;;;;;;5111914;28;20076;-51
2023/03/10 13:46:18;;;;;;;1.35;1.05;;;;;;;;;;5111691;28;20031;-51
2023/03/10 13:48:45;;;;;;;2.35;1.17;;;;;;;;;;5111629;28;20035;-51
2023/03/10 13:51:22;;;;;;;4.63;2.35;;;;;;;;;;5111639;28;20035;-51
2023/03/10 13:53:51;;;;;;;2.40;1.75;;;;;;;;;;5111486;28;20028;-51
2023/03/10 13:56:18;;;;;;;4.10;0.90;;;;;;;;;;5111838;28;20363;-51
2023/03/10 13:58:45;;;;;;;1.25;1.13;;;;;;;;;;5111606;28;20058;-51
2023/03/10 14:01:37;;;;;;;4.40;1.38;;;;;;;;;;5111581;28;20107;-51
2023/03/10 14:04:07;;;;;;;2.28;1.40;;;;;;;;;;5107349;28;20425;-51
2023/03/10 14:06:35;;;;;;;1.65;0.57;;;;;;;;;;5111409;28;20031;-51
2023/03/10 14:09:34;;;;;;;4.40;1.95;;;;;;;;;;5110317;28;20031;-51
2023/03/10 14:12:00;;;;;;;7.03;1.63;;;;;;;;;;5077249;28;20048;-51
2023/03/10 14:14:30;;;;;;;1.42;1.00;;;;;;;;;;5111236;28;20031;-52
2023/03/10 14:16:58;;;;;;;4.72;1.63;;;;;;;;;;5111748;28;20034;-51
2023/03/10 14:19:35;;;;;;;3.95;1.50;;;;;;;;;;5111424;28;20019;-51
2023/03/10 14:22:01;;;;;;;3.70;1.15;;;;;;;;;;5111381;28;20032;-51
2023/03/10 14:24:26;;;;;;;0.90;0.60;;;;;;;;;;5111320;28;20035;-51
2023/03/10 14:26:54;;;;;;;1.00;0.90;;;;;;;;;;5111425;28;20031;-51
2023/03/10 14:29:19;;;;;;;1.17;0.77;;;;;;;;;;5115088;28;20493;-50
2023/03/10 14:31:49;;;;;;;4.63;1.63;;;;;;;;;;5115196;28;20043;-50
2023/03/10 14:34:15;;;;;;;1.55;1.00;;;;;;;;;;5114985;28;20466;-51
2023/03/10 14:36:41;;;;;;;5.65;1.42;;;;;;;;;;5114860;28;20039;-50
2023/03/10 14:39:07;;;;;;;0.90;0.90;;;;;;;;;;5113755;28;20020;-50
2023/03/10 14:41:33;;;;;;;2.08;0.77;;;;;;;;;;5114827;28;20473;-50
2023/03/10 14:44:00;;;;;;;1.83;1.67;;;;;;;;;;5114816;28;20078;-51
2023/03/10 14:46:26;;;;;;;1.23;0.98;;;;;;;;;;5114813;28;20027;-50